sensor_id;sensor_type;location;lat;lon;timestamp;pressure;altitude;pressure_sealevel;temperature
58102;BMP280;52034;51.926;6.320;2023-04-24T00:00:28;99827.44;;;11.23
58102;BMP280;52034;51.926;6.320;2023-04-24T00:01:29;99833.13;;;11.27
58102;BMP280;52034;51.926;6.320;2023-04-24T00:02:29;99838.75;;;11.27
58102;BMP280;52034;51.926;6.320;2023-04-24T00:03:30;99829.56;;;11.24
58102;BMP280;52034;51.926;6.320;2023-04-24T00:04:30;99836.59;;;11.25
58102;BMP280;52034;51.926;6.320;2023-04-24T00:05:31;99838.81;;;11.31
58102;BMP280;52034;51.926;6.320;2023-04-24T00:06:33;99829.59;;;11.26
58102;BMP280;52034;51.926;6.320;2023-04-24T00:07:34;99847.88;;;11.27
58102;BMP280;52034;51.926;6.320;2023-04-24T00:08:35;99841.63;;;11.31
58102;BMP280;52034;51.926;6.320;2023-04-24T00:09:36;99842.91;;;11.26
58102;BMP280;52034;51.926;6.320;2023-04-24T00:10:36;99836.72;;;11.31
58102;BMP280;52034;51.926;6.320;2023-04-24T00:11:36;99842.31;;;11.29
58102;BMP280;52034;51.926;6.320;2023-04-24T00:12:37;99838.78;;;11.29
58102;BMP280;52034;51.926;6.320;2023-04-24T00:13:37;99840.22;;;11.30
58102;BMP280;52034;51.926;6.320;2023-04-24T00:14:38;99848.53;;;11.26
58102;BMP280;52034;51.926;6.320;2023-04-24T00:15:38;99845.13;;;11.29
58102;BMP280;52034;51.926;6.320;2023-04-24T00:16:39;99845.06;;;11.27
58102;BMP280;52034;51.926;6.320;2023-04-24T00:17:39;99850.00;;;11.27
58102;BMP280;52034;51.926;6.320;2023-04-24T00:18:40;99851.41;;;11.28
58102;BMP280;52034;51.926;6.320;2023-04-24T00:19:41;99850.03;;;11.31
58102;BMP280;52034;51.926;6.320;2023-04-24T00:20:41;99847.94;;;11.29
58102;BMP280;52034;51.926;6.320;2023-04-24T00:21:43;99842.97;;;11.28
58102;BMP280;52034;51.926;6.320;2023-04-24T00:22:44;99846.50;;;11.28
58102;BMP280;52034;51.926;6.320;2023-04-24T00:23:44;99843.66;;;11.26
58102;BMP280;52034;51.926;6.320;2023-04-24T00:24:44;99846.50;;;11.28
58102;BMP280;52034;51.926;6.320;2023-04-24T00:25:45;99839.44;;;11.27
58102;BMP280;52034;51.926;6.320;2023-04-24T00:26:45;99847.88;;;11.27
58102;BMP280;52034;51.926;6.320;2023-04-24T00:27:45;99846.50;;;11.28
58102;BMP280;52034;51.926;6.320;2023-04-24T00:28:46;99850.69;;;11.27
58102;BMP280;52034;51.926;6.320;2023-04-24T00:29:46;99849.22;;;11.24
58102;BMP280;52034;51.926;6.320;2023-04-24T00:30:47;99851.41;;;11.28
58102;BMP280;52034;51.926;6.320;2023-04-24T00:31:47;99854.22;;;11.28
58102;BMP280;52034;51.926;6.320;2023-04-24T00:32:48;99852.13;;;11.28
58102;BMP280;52034;51.926;6.320;2023-04-24T00:33:48;99849.22;;;11.24
58102;BMP280;52034;51.926;6.320;2023-04-24T00:34:48;99845.06;;;11.27
58102;BMP280;52034;51.926;6.320;2023-04-24T00:35:49;99854.22;;;11.28
58102;BMP280;52034;51.926;6.320;2023-04-24T00:36:49;99834.47;;;11.24
58102;BMP280;52034;51.926;6.320;2023-04-24T00:37:52;99846.41;;;11.22
58102;BMP280;52034;51.926;6.320;2023-04-24T00:38:53;99841.44;;;11.21
58102;BMP280;52034;51.926;6.320;2023-04-24T00:39:53;99837.97;;;11.22
58102;BMP280;52034;51.926;6.320;2023-04-24T00:40:54;99840.84;;;11.26
58102;BMP280;52034;51.926;6.320;2023-04-24T00:41:55;99842.97;;;11.28
58102;BMP280;52034;51.926;6.320;2023-04-24T00:42:56;99836.59;;;11.25
58102;BMP280;52034;51.926;6.320;2023-04-24T00:43:57;99840.09;;;11.24
58102;BMP280;52034;51.926;6.320;2023-04-24T00:44:58;99835.09;;;11.20
58102;BMP280;52034;51.926;6.320;2023-04-24T00:45:59;99840.72;;;11.20
58102;BMP280;52034;51.926;6.320;2023-04-24T00:47:01;99842.84;;;11.22
58102;BMP280;52034;51.926;6.320;2023-04-24T00:48:02;99839.34;;;11.21
58102;BMP280;52034;51.926;6.320;2023-04-24T00:49:02;99847.00;;;11.19
58102;BMP280;52034;51.926;6.320;2023-04-24T00:50:03;99838.75;;;11.27
58102;BMP280;52034;51.926;6.320;2023-04-24T00:51:04;99844.28;;;11.23
58102;BMP280;52034;51.926;6.320;2023-04-24T00:52:04;99850.59;;;11.21
58102;BMP280;52034;51.926;6.320;2023-04-24T00:53:08;99847.06;;;11.21
58102;BMP280;52034;51.926;6.320;2023-04-24T00:54:09;99843.53;;;11.20
58102;BMP280;52034;51.926;6.320;2023-04-24T00:55:09;99840.72;;;11.20
58102;BMP280;52034;51.926;6.320;2023-04-24T00:56:10;99849.81;;;11.19
58102;BMP280;52034;51.926;6.320;2023-04-24T00:57:12;99838.53;;;11.15
58102;BMP280;52034;51.926;6.320;2023-04-24T00:58:13;99849.75;;;11.15
58102;BMP280;52034;51.926;6.320;2023-04-24T00:59:18;99851.13;;;11.14
58102;BMP280;52034;51.926;6.320;2023-04-24T01:00:18;99839.25;;;11.15
58102;BMP280;52034;51.926;6.320;2023-04-24T01:01:20;99846.31;;;11.18
58102;BMP280;52034;51.926;6.320;2023-04-24T01:02:25;99842.84;;;11.20
58102;BMP280;52034;51.926;6.320;2023-04-24T01:03:28;99847.06;;;11.21
58102;BMP280;52034;51.926;6.320;2023-04-24T01:04:30;99845.59;;;11.18
58102;BMP280;52034;51.926;6.320;2023-04-24T01:05:30;99842.72;;;11.16
58102;BMP280;52034;51.926;6.320;2023-04-24T01:06:31;99846.25;;;11.16
58102;BMP280;52034;51.926;6.320;2023-04-24T01:07:32;99849.06;;;11.16
58102;BMP280;52034;51.926;6.320;2023-04-24T01:08:34;99849.03;;;11.14
58102;BMP280;52034;51.926;6.320;2023-04-24T01:09:35;99860.94;;;11.13
58102;BMP280;52034;51.926;6.320;2023-04-24T01:10:36;99854.63;;;11.12
58102;BMP280;52034;51.926;6.320;2023-04-24T01:11:37;99851.84;;;11.14
58102;BMP280;52034;51.926;6.320;2023-04-24T01:12:39;99853.19;;;11.11
58102;BMP280;52034;51.926;6.320;2023-04-24T01:13:39;99840.56;;;11.12
58102;BMP280;52034;51.926;6.320;2023-04-24T01:14:40;99843.41;;;11.14
58102;BMP280;52034;51.926;6.320;2023-04-24T01:15:40;99848.94;;;11.10
58102;BMP280;52034;51.926;6.320;2023-04-24T01:16:41;99845.53;;;11.16
58102;BMP280;52034;51.926;6.320;2023-04-24T01:17:42;99844.06;;;11.13
58102;BMP280;52034;51.926;6.320;2023-04-24T01:18:43;99841.31;;;11.15
58102;BMP280;52034;51.926;6.320;2023-04-24T01:19:45;99835.00;;;11.16
58102;BMP280;52034;51.926;6.320;2023-04-24T01:20:45;99842.78;;;11.18
58102;BMP280;52034;51.926;6.320;2023-04-24T01:21:47;99836.44;;;11.17
58102;BMP280;52034;51.926;6.320;2023-04-24T01:22:47;99837.09;;;11.16
58102;BMP280;52034;51.926;6.320;2023-04-24T01:23:49;99847.72;;;11.19
58102;BMP280;52034;51.926;6.320;2023-04-24T01:24:53;99847.59;;;11.13
58102;BMP280;52034;51.926;6.320;2023-04-24T01:25:54;99845.59;;;11.18
58102;BMP280;52034;51.926;6.320;2023-04-24T01:26:54;99839.16;;;11.11
58102;BMP280;52034;51.926;6.320;2023-04-24T01:27:55;99844.84;;;11.17
58102;BMP280;52034;51.926;6.320;2023-04-24T01:28:56;99843.44;;;11.16
58102;BMP280;52034;51.926;6.320;2023-04-24T01:29:57;99844.84;;;11.15
58102;BMP280;52034;51.926;6.320;2023-04-24T01:30:57;99846.19;;;11.12
58102;BMP280;52034;51.926;6.320;2023-04-24T01:32:00;99846.19;;;11.12
58102;BMP280;52034;51.926;6.320;2023-04-24T01:33:00;99846.25;;;11.16
58102;BMP280;52034;51.926;6.320;2023-04-24T01:34:01;99848.34;;;11.14
58102;BMP280;52034;51.926;6.320;2023-04-24T01:35:02;99840.69;;;11.18
58102;BMP280;52034;51.926;6.320;2023-04-24T01:36:03;99840.56;;;11.12
58102;BMP280;52034;51.926;6.320;2023-04-24T01:37:03;99851.03;;;11.08
58102;BMP280;52034;51.926;6.320;2023-04-24T01:38:05;99847.53;;;11.09
58102;BMP280;52034;51.926;6.320;2023-04-24T01:39:05;99844.72;;;11.09
58102;BMP280;52034;51.926;6.320;2023-04-24T01:40:06;99840.47;;;11.08
58102;BMP280;52034;51.926;6.320;2023-04-24T01:41:07;99846.13;;;11.10
58102;BMP280;52034;51.926;6.320;2023-04-24T01:42:07;99839.78;;;11.08
58102;BMP280;52034;51.926;6.320;2023-04-24T01:43:08;99847.53;;;11.09
58102;BMP280;52034;51.926;6.320;2023-04-24T01:44:08;99837.69;;;11.08
58102;BMP280;52034;51.926;6.320;2023-04-24T01:45:11;99838.44;;;11.11
58102;BMP280;52034;51.926;6.320;2023-04-24T01:46:13;99842.59;;;11.08
58102;BMP280;52034;51.926;6.320;2023-04-24T01:47:13;99843.31;;;11.10
58102;BMP280;52034;51.926;6.320;2023-04-24T01:48:13;99842.00;;;11.13
58102;BMP280;52034;51.926;6.320;2023-04-24T01:49:14;99847.66;;;11.15
58102;BMP280;52034;51.926;6.320;2023-04-24T01:50:14;99851.88;;;11.16
58102;BMP280;52034;51.926;6.320;2023-04-24T01:51:15;99846.88;;;11.13
58102;BMP280;52034;51.926;6.320;2023-04-24T01:52:15;99844.78;;;11.11
58102;BMP280;52034;51.926;6.320;2023-04-24T01:53:16;99840.56;;;11.12
58102;BMP280;52034;51.926;6.320;2023-04-24T01:54:17;99846.78;;;11.09
58102;BMP280;52034;51.926;6.320;2023-04-24T01:55:17;99845.44;;;11.10
58102;BMP280;52034;51.926;6.320;2023-04-24T01:56:22;99847.53;;;11.09
58102;BMP280;52034;51.926;6.320;2023-04-24T01:57:22;99848.91;;;11.08
58102;BMP280;52034;51.926;6.320;2023-04-24T01:58:23;99851.03;;;11.08
58102;BMP280;52034;51.926;6.320;2023-04-24T01:59:25;99841.13;;;11.05
58102;BMP280;52034;51.926;6.320;2023-04-24T02:00:25;99847.34;;;10.99
58102;BMP280;52034;51.926;6.320;2023-04-24T02:01:27;99850.84;;;11.00
58102;BMP280;52034;51.926;6.320;2023-04-24T02:02:27;99850.22;;;11.03
58102;BMP280;52034;51.926;6.320;2023-04-24T02:03:30;99848.06;;;11.02
58102;BMP280;52034;51.926;6.320;2023-04-24T02:04:32;99853.06;;;11.05
58102;BMP280;52034;51.926;6.320;2023-04-24T02:05:33;99852.97;;;11.01
58102;BMP280;52034;51.926;6.320;2023-04-24T02:06:33;99838.84;;;10.97
58102;BMP280;52034;51.926;6.320;2023-04-24T02:07:34;99845.91;;;10.98
58102;BMP280;52034;51.926;6.320;2023-04-24T02:08:35;99843.66;;;10.91
58102;BMP280;52034;51.926;6.320;2023-04-24T02:09:35;99842.97;;;10.92
58102;BMP280;52034;51.926;6.320;2023-04-24T02:10:35;99838.75;;;10.93
58102;BMP280;52034;51.926;6.320;2023-04-24T02:11:36;99852.00;;;10.89
58102;BMP280;52034;51.926;6.320;2023-04-24T02:12:36;99851.22;;;10.84
58102;BMP280;52034;51.926;6.320;2023-04-24T02:13:37;99848.38;;;10.82
58102;BMP280;52034;51.926;6.320;2023-04-24T02:14:37;99846.25;;;10.81
58102;BMP280;52034;51.926;6.320;2023-04-24T02:15:37;99841.38;;;10.83
58102;BMP280;52034;51.926;6.320;2023-04-24T02:16:38;99856.75;;;10.80
58102;BMP280;52034;51.926;6.320;2023-04-24T02:17:39;99836.44;;;10.82
58102;BMP280;52034;51.926;6.320;2023-04-24T02:18:39;99844.78;;;10.80
58102;BMP280;52034;51.926;6.320;2023-04-24T02:19:39;99844.91;;;10.84
58102;BMP280;52034;51.926;6.320;2023-04-24T02:20:40;99857.47;;;10.81
58102;BMP280;52034;51.926;6.320;2023-04-24T02:21:40;99849.75;;;10.81
58102;BMP280;52034;51.926;6.320;2023-04-24T02:22:42;99855.31;;;10.79
58102;BMP280;52034;51.926;6.320;2023-04-24T02:23:43;99848.25;;;10.78
58102;BMP280;52034;51.926;6.320;2023-04-24T02:24:43;99855.91;;;10.74
58102;BMP280;52034;51.926;6.320;2023-04-24T02:25:43;99853.16;;;10.76
58102;BMP280;52034;51.926;6.320;2023-04-24T02:26:44;99856.69;;;10.78
58102;BMP280;52034;51.926;6.320;2023-04-24T02:27:44;99853.13;;;10.74
58102;BMP280;52034;51.926;6.320;2023-04-24T02:28:44;99849.53;;;10.71
58102;BMP280;52034;51.926;6.320;2023-04-24T02:29:45;99846.78;;;10.73
58102;BMP280;52034;51.926;6.320;2023-04-24T02:30:45;99852.38;;;10.73
58102;BMP280;52034;51.926;6.320;2023-04-24T02:31:45;99841.03;;;10.67
58102;BMP280;52034;51.926;6.320;2023-04-24T02:32:48;99862.28;;;10.76
58102;BMP280;52034;51.926;6.320;2023-04-24T02:33:49;99855.22;;;10.75
58102;BMP280;52034;51.926;6.320;2023-04-24T02:34:49;99853.53;;;10.62
58102;BMP280;52034;51.926;6.320;2023-04-24T02:35:50;99858.59;;;10.68
58102;BMP280;52034;51.926;6.320;2023-04-24T02:36:50;99850.88;;;10.68
58102;BMP280;52034;51.926;6.320;2023-04-24T02:37:50;99847.97;;;10.64
58102;BMP280;52034;51.926;6.320;2023-04-24T02:38:51;99854.34;;;10.67
58102;BMP280;52034;51.926;6.320;2023-04-24T02:39:51;99850.06;;;10.64
58102;BMP280;52034;51.926;6.320;2023-04-24T02:40:52;99847.31;;;10.66
58102;BMP280;52034;51.926;6.320;2023-04-24T02:41:52;99847.31;;;10.66
58102;BMP280;52034;51.926;6.320;2023-04-24T02:42:53;99844.44;;;10.64
58102;BMP280;52034;51.926;6.320;2023-04-24T02:43:53;99854.31;;;10.65
58102;BMP280;52034;51.926;6.320;2023-04-24T02:44:53;99850.84;;;10.66
58102;BMP280;52034;51.926;6.320;2023-04-24T02:45:54;99852.09;;;10.61
58102;BMP280;52034;51.926;6.320;2023-04-24T02:46:54;99846.50;;;10.61
58102;BMP280;52034;51.926;6.320;2023-04-24T02:47:54;99855.59;;;10.60
58102;BMP280;52034;51.926;6.320;2023-04-24T02:48:55;99845.75;;;10.59
58102;BMP280;52034;51.926;6.320;2023-04-24T02:49:55;99856.97;;;10.59
58102;BMP280;52034;51.926;6.320;2023-04-24T02:50:55;99847.13;;;10.58
58102;BMP280;52034;51.926;6.320;2023-04-24T02:51:56;99857.72;;;10.59
58102;BMP280;52034;51.926;6.320;2023-04-24T02:52:56;99858.38;;;10.58
58102;BMP280;52034;51.926;6.320;2023-04-24T02:53:56;99849.97;;;10.60
58102;BMP280;52034;51.926;6.320;2023-04-24T02:54:57;99854.25;;;10.63
58102;BMP280;52034;51.926;6.320;2023-04-24T02:55:57;99845.09;;;10.60
58102;BMP280;52034;51.926;6.320;2023-04-24T02:56:58;99853.41;;;10.56
58102;BMP280;52034;51.926;6.320;2023-04-24T02:57:58;99859.13;;;10.62
58102;BMP280;52034;51.926;6.320;2023-04-24T02:58:58;99856.31;;;10.60
58102;BMP280;52034;51.926;6.320;2023-04-24T02:59:59;99857.03;;;10.61
58102;BMP280;52034;51.926;6.320;2023-04-24T03:00:59;99852.09;;;10.61
58102;BMP280;52034;51.926;6.320;2023-04-24T03:02:00;99846.47;;;10.59
58102;BMP280;52034;51.926;6.320;2023-04-24T03:03:00;99852.09;;;10.61
58102;BMP280;52034;51.926;6.320;2023-04-24T03:04:01;99854.78;;;10.55
58102;BMP280;52034;51.926;6.320;2023-04-24T03:05:02;99842.19;;;10.56
58102;BMP280;52034;51.926;6.320;2023-04-24T03:06:03;99847.84;;;10.58
58102;BMP280;52034;51.926;6.320;2023-04-24T03:07:05;99846.50;;;10.61
58102;BMP280;52034;51.926;6.320;2023-04-24T03:08:06;99853.44;;;10.58
58102;BMP280;52034;51.926;6.320;2023-04-24T03:09:06;99852.75;;;10.58
58102;BMP280;52034;51.926;6.320;2023-04-24T03:10:07;99841.53;;;10.58
58102;BMP280;52034;51.926;6.320;2023-04-24T03:11:07;99848.56;;;10.59
58102;BMP280;52034;51.926;6.320;2023-04-24T03:12:08;99841.53;;;10.58
58102;BMP280;52034;51.926;6.320;2023-04-24T03:13:09;99851.25;;;10.53
58102;BMP280;52034;51.926;6.320;2023-04-24T03:14:09;99847.84;;;10.58
58102;BMP280;52034;51.926;6.320;2023-04-24T03:15:11;99849.28;;;10.59
58102;BMP280;52034;51.926;6.320;2023-04-24T03:16:12;99847.13;;;10.58
58102;BMP280;52034;51.926;6.320;2023-04-24T03:17:12;99847.84;;;10.58
58102;BMP280;52034;51.926;6.320;2023-04-24T03:18:12;99855.56;;;10.58
58102;BMP280;52034;51.926;6.320;2023-04-24T03:19:13;99847.19;;;10.60
58102;BMP280;52034;51.926;6.320;2023-04-24T03:20:25;99851.44;;;10.63
58102;BMP280;52034;51.926;6.320;2023-04-24T03:21:26;99854.31;;;10.65
58102;BMP280;52034;51.926;6.320;2023-04-24T03:22:27;99853.59;;;10.64
58102;BMP280;52034;51.926;6.320;2023-04-24T03:23:27;99860.50;;;10.59
58102;BMP280;52034;51.926;6.320;2023-04-24T03:24:28;99857.06;;;10.63
58102;BMP280;52034;51.926;6.320;2023-04-24T03:25:29;99857.72;;;10.61
58102;BMP280;52034;51.926;6.320;2023-04-24T03:26:30;99859.13;;;10.62
58102;BMP280;52034;51.926;6.320;2023-04-24T03:27:47;99859.13;;;10.62
58102;BMP280;52034;51.926;6.320;2023-04-24T03:28:57;99856.31;;;10.60
58102;BMP280;52034;51.926;6.320;2023-04-24T03:29:57;99856.38;;;10.64
58102;BMP280;52034;51.926;6.320;2023-04-24T03:31:18;99855.59;;;10.60
58102;BMP280;52034;51.926;6.320;2023-04-24T03:32:19;99864.75;;;10.62
58102;BMP280;52034;51.926;6.320;2023-04-24T03:33:20;99863.84;;;10.54
58102;BMP280;52034;51.926;6.320;2023-04-24T03:34:30;99858.94;;;10.52
58102;BMP280;52034;51.926;6.320;2023-04-24T03:35:32;99870.81;;;10.51
58102;BMP280;52034;51.926;6.320;2023-04-24T03:36:35;99863.03;;;10.47
58102;BMP280;52034;51.926;6.320;2023-04-24T03:37:36;99868.72;;;10.51
58102;BMP280;52034;51.926;6.320;2023-04-24T03:38:54;99868.63;;;10.47
58102;BMP280;52034;51.926;6.320;2023-04-24T03:40:02;99865.16;;;10.49
58102;BMP280;52034;51.926;6.320;2023-04-24T03:41:03;99866.66;;;10.52
58102;BMP280;52034;51.926;6.320;2023-04-24T03:42:13;99863.19;;;10.53
58102;BMP280;52034;51.926;6.320;2023-04-24T03:43:23;99868.78;;;10.53
58102;BMP280;52034;51.926;6.320;2023-04-24T03:44:24;99869.41;;;10.50
58102;BMP280;52034;51.926;6.320;2023-04-24T03:45:24;99865.81;;;10.47
58102;BMP280;52034;51.926;6.320;2023-04-24T03:46:25;99863.75;;;10.48
58102;BMP280;52034;51.926;6.320;2023-04-24T03:47:30;99865.75;;;10.45
58102;BMP280;52034;51.926;6.320;2023-04-24T03:48:34;99858.84;;;10.48
58102;BMP280;52034;51.926;6.320;2023-04-24T03:49:35;99868.69;;;10.49
58102;BMP280;52034;51.926;6.320;2023-04-24T03:50:36;99872.25;;;10.52
58102;BMP280;52034;51.926;6.320;2023-04-24T03:51:36;99863.13;;;10.51
58102;BMP280;52034;51.926;6.320;2023-04-24T03:52:50;99868.78;;;10.53
58102;BMP280;52034;51.926;6.320;2023-04-24T03:54:01;99870.03;;;10.46
58102;BMP280;52034;51.926;6.320;2023-04-24T03:55:04;99871.44;;;10.47
58102;BMP280;52034;51.926;6.320;2023-04-24T03:56:10;99871.53;;;10.51
58102;BMP280;52034;51.926;6.320;2023-04-24T03:57:11;99878.47;;;10.48
58102;BMP280;52034;51.926;6.320;2023-04-24T03:58:15;99880.53;;;10.46
58102;BMP280;52034;51.926;6.320;2023-04-24T03:59:16;99883.38;;;10.48
58102;BMP280;52034;51.926;6.320;2023-04-24T04:00:21;99881.34;;;10.50
58102;BMP280;52034;51.926;6.320;2023-04-24T04:01:28;99873.50;;;10.45
58102;BMP280;52034;51.926;6.320;2023-04-24T04:02:35;99878.47;;;10.48
58102;BMP280;52034;51.926;6.320;2023-04-24T04:03:35;99883.50;;;10.52
58102;BMP280;52034;51.926;6.320;2023-04-24T04:04:36;99884.16;;;10.50
58102;BMP280;52034;51.926;6.320;2023-04-24T04:05:36;99878.53;;;10.50
58102;BMP280;52034;51.926;6.320;2023-04-24T04:06:36;99878.44;;;10.46
58102;BMP280;52034;51.926;6.320;2023-04-24T04:07:37;99882.59;;;10.45
58102;BMP280;52034;51.926;6.320;2023-04-24T04:08:37;99880.47;;;10.44
58102;BMP280;52034;51.926;6.320;2023-04-24T04:09:38;99882.66;;;10.47
58102;BMP280;52034;51.926;6.320;2023-04-24T04:10:38;99885.41;;;10.45
58102;BMP280;52034;51.926;6.320;2023-04-24T04:11:39;99882.59;;;10.45
58102;BMP280;52034;51.926;6.320;2023-04-24T04:12:39;99882.53;;;10.41
58102;BMP280;52034;51.926;6.320;2023-04-24T04:13:39;99881.88;;;10.43
58102;BMP280;52034;51.926;6.320;2023-04-24T04:14:40;99885.41;;;10.45
58102;BMP280;52034;51.926;6.320;2023-04-24T04:15:40;99886.81;;;10.44
58102;BMP280;52034;51.926;6.320;2023-04-24T04:16:41;99894.00;;;10.51
58102;BMP280;52034;51.926;6.320;2023-04-24T04:17:42;99882.66;;;10.47
58102;BMP280;52034;51.926;6.320;2023-04-24T04:18:43;99894.66;;;10.50
58102;BMP280;52034;51.926;6.320;2023-04-24T04:19:44;99893.81;;;10.43
58102;BMP280;52034;51.926;6.320;2023-04-24T04:20:44;99893.75;;;10.41
58102;BMP280;52034;51.926;6.320;2023-04-24T04:21:47;99889.47;;;10.38
58102;BMP280;52034;51.926;6.320;2023-04-24T04:23:12;99892.25;;;10.36
58102;BMP280;52034;51.926;6.320;2023-04-24T04:24:28;99897.28;;;10.42
58102;BMP280;52034;51.926;6.320;2023-04-24T04:25:30;99890.22;;;10.41
58102;BMP280;52034;51.926;6.320;2023-04-24T04:26:31;99892.44;;;10.44
58102;BMP280;52034;51.926;6.320;2023-04-24T04:27:36;99894.50;;;10.44
58102;BMP280;52034;51.926;6.320;2023-04-24T04:28:42;99899.44;;;10.43
58102;BMP280;52034;51.926;6.320;2023-04-24T04:29:45;99895.22;;;10.44
58102;BMP280;52034;51.926;6.320;2023-04-24T04:30:47;99898.69;;;10.43
58102;BMP280;52034;51.926;6.320;2023-04-24T04:31:48;99902.94;;;10.44
58102;BMP280;52034;51.926;6.320;2023-04-24T04:32:49;99898.06;;;10.46
58102;BMP280;52034;51.926;6.320;2023-04-24T04:33:49;99895.97;;;10.45
58102;BMP280;52034;51.926;6.320;2023-04-24T04:34:50;99903.59;;;10.42
58102;BMP280;52034;51.926;6.320;2023-04-24T04:35:53;99903.69;;;10.46
58102;BMP280;52034;51.926;6.320;2023-04-24T04:36:57;99909.31;;;10.46
58102;BMP280;52034;51.926;6.320;2023-04-24T04:38:08;99903.56;;;10.40
58102;BMP280;52034;51.926;6.320;2023-04-24T04:39:31;99912.00;;;10.42
58102;BMP280;52034;51.926;6.320;2023-04-24T04:40:35;99910.56;;;10.41
58102;BMP280;52034;51.926;6.320;2023-04-24T04:41:38;99915.44;;;10.39
58102;BMP280;52034;51.926;6.320;2023-04-24T04:42:41;99913.28;;;10.37
58102;BMP280;52034;51.926;6.320;2023-04-24T04:43:43;99908.25;;;10.32
58102;BMP280;52034;51.926;6.320;2023-04-24T04:44:43;99913.28;;;10.37
58102;BMP280;52034;51.926;6.320;2023-04-24T04:45:50;99916.78;;;10.36
58102;BMP280;52034;51.926;6.320;2023-04-24T04:47:10;99909.75;;;10.35
58102;BMP280;52034;51.926;6.320;2023-04-24T04:48:11;99911.75;;;10.32
58102;BMP280;52034;51.926;6.320;2023-04-24T04:49:13;99913.19;;;10.33
58102;BMP280;52034;51.926;6.320;2023-04-24T04:50:16;99911.75;;;10.32
58102;BMP280;52034;51.926;6.320;2023-04-24T04:51:19;99918.84;;;10.35
58102;BMP280;52034;51.926;6.320;2023-04-24T04:52:20;99916.06;;;10.35
58102;BMP280;52034;51.926;6.320;2023-04-24T04:53:26;99911.97;;;10.40
58102;BMP280;52034;51.926;6.320;2023-04-24T04:54:27;99919.66;;;10.40
58102;BMP280;52034;51.926;6.320;2023-04-24T04:55:28;99910.41;;;10.33
58102;BMP280;52034;51.926;6.320;2023-04-24T04:56:40;99910.44;;;10.35
58102;BMP280;52034;51.926;6.320;2023-04-24T04:57:40;99906.94;;;10.35
58102;BMP280;52034;51.926;6.320;2023-04-24T04:58:40;99914.69;;;10.38
58102;BMP280;52034;51.926;6.320;2023-04-24T04:59:44;99902.75;;;10.36
58102;BMP280;52034;51.926;6.320;2023-04-24T05:00:50;99912.63;;;10.39
58102;BMP280;52034;51.926;6.320;2023-04-24T05:01:57;99904.13;;;10.35
58102;BMP280;52034;51.926;6.320;2023-04-24T05:02:57;99902.63;;;10.32
58102;BMP280;52034;51.926;6.320;2023-04-24T05:03:58;99916.00;;;10.33
58102;BMP280;52034;51.926;6.320;2023-04-24T05:04:59;99918.03;;;10.31
58102;BMP280;52034;51.926;6.320;2023-04-24T05:06:01;99910.34;;;10.31
58102;BMP280;52034;51.926;6.320;2023-04-24T05:07:03;99906.16;;;10.32
58102;BMP280;52034;51.926;6.320;2023-04-24T05:08:07;99909.69;;;10.33
58102;BMP280;52034;51.926;6.320;2023-04-24T05:09:09;99906.09;;;10.30
58102;BMP280;52034;51.926;6.320;2023-04-24T05:10:17;99911.69;;;10.28
58102;BMP280;52034;51.926;6.320;2023-04-24T05:11:18;99906.78;;;10.29
58102;BMP280;52034;51.926;6.320;2023-04-24T05:12:18;99900.53;;;10.32
58102;BMP280;52034;51.926;6.320;2023-04-24T05:13:24;99907.53;;;10.31
58102;BMP280;52034;51.926;6.320;2023-04-24T05:14:25;99909.59;;;10.29
58102;BMP280;52034;51.926;6.320;2023-04-24T05:15:26;99912.41;;;10.29
58102;BMP280;52034;51.926;6.320;2023-04-24T05:16:26;99906.06;;;10.28
58102;BMP280;52034;51.926;6.320;2023-04-24T05:17:29;99912.41;;;10.29
58102;BMP280;52034;51.926;6.320;2023-04-24T05:18:30;99905.22;;;10.24
58102;BMP280;52034;51.926;6.320;2023-04-24T05:19:31;99901.84;;;10.29
58102;BMP280;52034;51.926;6.320;2023-04-24T05:20:36;99911.69;;;10.28
58102;BMP280;52034;51.926;6.320;2023-04-24T05:21:36;99913.75;;;10.28
58102;BMP280;52034;51.926;6.320;2023-04-24T05:22:36;99908.88;;;10.28
58102;BMP280;52034;51.926;6.320;2023-04-24T05:23:37;99910.94;;;10.28
58102;BMP280;52034;51.926;6.320;2023-04-24T05:24:37;99905.34;;;10.28
58102;BMP280;52034;51.926;6.320;2023-04-24T05:25:58;99901.84;;;10.29
58102;BMP280;52034;51.926;6.320;2023-04-24T05:26:59;99915.22;;;10.29
58102;BMP280;52034;51.926;6.320;2023-04-24T05:28:05;99910.25;;;10.29
58102;BMP280;52034;51.926;6.320;2023-04-24T05:29:06;99913.13;;;10.31
58102;BMP280;52034;51.926;6.320;2023-04-24T05:30:07;99911.63;;;10.26
58102;BMP280;52034;51.926;6.320;2023-04-24T05:31:08;99907.44;;;10.27
58102;BMP280;52034;51.926;6.320;2023-04-24T05:32:09;99908.09;;;10.26
58102;BMP280;52034;51.926;6.320;2023-04-24T05:33:09;99906.88;;;10.33
58102;BMP280;52034;51.926;6.320;2023-04-24T05:34:10;99909.69;;;10.33
58102;BMP280;52034;51.926;6.320;2023-04-24T05:35:14;99910.47;;;10.37
58102;BMP280;52034;51.926;6.320;2023-04-24T05:36:14;99907.63;;;10.35
58102;BMP280;52034;51.926;6.320;2023-04-24T05:37:15;99909.09;;;10.38
58102;BMP280;52034;51.926;6.320;2023-04-24T05:38:15;99913.31;;;10.39
58102;BMP280;52034;51.926;6.320;2023-04-24T05:39:19;99911.25;;;10.40
58102;BMP280;52034;51.926;6.320;2023-04-24T05:40:19;99921.03;;;10.39
58102;BMP280;52034;51.926;6.320;2023-04-24T05:41:20;99919.00;;;10.41
58102;BMP280;52034;51.926;6.320;2023-04-24T05:42:21;99919.00;;;10.41
58102;BMP280;52034;51.926;6.320;2023-04-24T05:43:21;99917.56;;;10.40
58102;BMP280;52034;51.926;6.320;2023-04-24T05:44:21;99917.56;;;10.40
58102;BMP280;52034;51.926;6.320;2023-04-24T05:45:22;99918.28;;;10.41
58102;BMP280;52034;51.926;6.320;2023-04-24T05:46:22;99911.81;;;10.34
58102;BMP280;52034;51.926;6.320;2023-04-24T05:47:24;99923.09;;;10.36
58102;BMP280;52034;51.926;6.320;2023-04-24T05:48:25;99920.97;;;10.35
58102;BMP280;52034;51.926;6.320;2023-04-24T05:49:26;99919.59;;;10.36
58102;BMP280;52034;51.926;6.320;2023-04-24T05:50:28;99916.72;;;10.34
58102;BMP280;52034;51.926;6.320;2023-04-24T05:51:28;99914.63;;;10.34
58102;BMP280;52034;51.926;6.320;2023-04-24T05:52:29;99911.72;;;10.30
58102;BMP280;52034;51.926;6.320;2023-04-24T05:53:29;99922.22;;;10.30
58102;BMP280;52034;51.926;6.320;2023-04-24T05:54:29;99920.09;;;10.28
58102;BMP280;52034;51.926;6.320;2023-04-24T05:55:30;99923.50;;;10.25
58102;BMP280;52034;51.926;6.320;2023-04-24T05:56:31;99911.69;;;10.28